createdAt,value
2023-06-29T00:00:10.853Z,6.35
2023-06-29T00:03:02.985Z,5.93
2023-06-29T00:05:31.879Z,6.72
2023-06-29T00:08:00.460Z,7.10
2023-06-29T00:10:30.123Z,6.20
2023-06-29T00:12:58.513Z,5.88
2023-06-29T00:15:27.081Z,6.38
2023-06-29T00:17:55.495Z,6.43
2023-06-29T00:20:29.683Z,7.47
2023-06-29T00:22:58.345Z,6.50
2023-06-29T00:25:27.032Z,5.72
2023-06-29T00:27:55.384Z,5.88
2023-06-29T00:30:24.187Z,5.93
2023-06-29T00:32:53.214Z,6.43
2023-06-29T00:35:21.898Z,6.38
2023-06-29T00:37:51.461Z,5.68
2023-06-29T00:40:20.136Z,7.20
2023-06-29T00:42:49.789Z,6.45
2023-06-29T00:45:18.615Z,6.35
2023-06-29T00:47:47.416Z,5.93
2023-06-29T00:50:18.075Z,6.63
2023-06-29T00:52:46.626Z,6.35
2023-06-29T00:55:16.726Z,6.65
2023-06-29T00:57:45.107Z,6.68
2023-06-29T01:00:14.768Z,6.10
2023-06-29T01:02:43.622Z,6.45
2023-06-29T01:05:15.815Z,6.70
2023-06-29T01:07:51.440Z,6.00
2023-06-29T01:10:26.741Z,6.25
2023-06-29T01:12:56.031Z,5.90
2023-06-29T01:15:26.248Z,5.85
2023-06-29T01:17:58.605Z,5.68
2023-06-29T01:20:28.566Z,6.35
2023-06-29T01:23:01.794Z,6.05
2023-06-29T01:25:32.171Z,6.68
2023-06-29T01:28:00.848Z,6.38
2023-06-29T01:30:29.714Z,6.28
2023-06-29T01:32:58.616Z,6.65
2023-06-29T01:35:27.875Z,6.68
2023-06-29T01:38:08.296Z,6.20
2023-06-29T01:40:42.333Z,7.07
2023-06-29T01:43:10.935Z,7.07
2023-06-29T01:45:41.498Z,6.85
2023-06-29T01:48:11.082Z,6.70
2023-06-29T01:50:40.010Z,6.85
2023-06-29T01:53:08.679Z,6.40
2023-06-29T01:55:40.616Z,6.35
2023-06-29T01:58:11.078Z,6.10
2023-06-29T02:00:39.791Z,6.88
2023-06-29T02:03:08.817Z,7.00
2023-06-29T02:05:37.943Z,7.18
2023-06-29T02:08:06.532Z,6.70
2023-06-29T02:13:22.186Z,6.38
2023-06-29T02:15:50.967Z,6.38
2023-06-29T02:18:19.436Z,5.95
2023-06-29T02:20:48.290Z,6.30
2023-06-29T02:23:16.832Z,6.22
2023-06-29T02:25:45.666Z,6.75
2023-06-29T02:28:14.443Z,6.63
2023-06-29T02:30:44.621Z,6.13
2023-06-29T02:33:12.998Z,6.90
2023-06-29T02:35:42.243Z,6.80
2023-06-29T02:38:11.030Z,7.10
2023-06-29T02:40:39.493Z,6.45
2023-06-29T02:43:08.210Z,6.85
2023-06-29T02:45:36.831Z,6.55
2023-06-29T02:48:07.288Z,7.80
2023-06-29T02:50:36.213Z,7.00
2023-06-29T02:53:05.254Z,6.53
2023-06-29T02:55:34.594Z,7.38
2023-06-29T02:58:03.003Z,7.20
2023-06-29T03:00:31.494Z,8.02
2023-06-29T03:02:59.938Z,7.82
2023-06-29T03:05:31.713Z,8.15
2023-06-29T03:08:00.416Z,7.28
2023-06-29T03:10:29.045Z,7.75
2023-06-29T03:12:57.388Z,7.22
2023-06-29T03:15:25.948Z,8.00
2023-06-29T03:17:54.331Z,7.15
2023-06-29T03:20:23.584Z,7.40
2023-06-29T03:22:53.442Z,7.22
2023-06-29T03:25:22.925Z,7.82
2023-06-29T03:27:51.344Z,8.05
2023-06-29T03:30:20.109Z,8.10
2023-06-29T03:32:48.494Z,8.50
2023-06-29T03:35:17.319Z,7.55
2023-06-29T03:37:45.775Z,7.28
2023-06-29T03:40:15.842Z,7.55
2023-06-29T03:42:44.424Z,8.07
2023-06-29T03:45:13.015Z,8.10
2023-06-29T03:47:41.567Z,8.20
2023-06-29T03:50:11.742Z,7.43
2023-06-29T03:52:40.192Z,8.35
2023-06-29T03:55:10.099Z,7.15
2023-06-29T03:57:39.886Z,8.60
2023-06-29T04:00:10.419Z,7.90
2023-06-29T04:02:42.725Z,8.05
2023-06-29T04:05:11.973Z,6.90
2023-06-29T04:07:40.304Z,7.60
2023-06-29T04:10:10.235Z,7.80
2023-06-29T04:12:40.637Z,7.18
2023-06-29T04:15:10.420Z,7.43
2023-06-29T04:17:38.781Z,7.43
2023-06-29T04:20:09.377Z,7.60
2023-06-29T04:22:37.844Z,7.70
2023-06-29T04:25:07.607Z,7.43
2023-06-29T04:27:36.093Z,7.00
2023-06-29T04:30:07.487Z,7.40
2023-06-29T04:32:36.247Z,7.15
2023-06-29T04:35:05.495Z,8.27
2023-06-29T04:37:37.913Z,6.47
2023-06-29T04:40:08.441Z,7.63
2023-06-29T04:42:45.146Z,7.07
2023-06-29T04:45:18.982Z,6.68
2023-06-29T04:47:50.635Z,7.22
2023-06-29T04:50:25.996Z,7.03
2023-06-29T04:52:55.171Z,7.57
2023-06-29T04:55:24.571Z,7.47
2023-06-29T04:57:53.200Z,6.80
2023-06-29T05:00:23.292Z,6.53
2023-06-29T05:02:51.768Z,6.65
2023-06-29T05:05:20.729Z,8.77
2023-06-29T05:07:49.846Z,6.82
2023-06-29T05:10:18.571Z,6.30
2023-06-29T05:12:46.999Z,5.47
2023-06-29T05:15:16.679Z,6.47
2023-06-29T05:27:35.559Z,5.75
2023-06-29T05:30:04.851Z,4.72
2023-06-29T05:32:34.222Z,5.50
2023-06-29T05:35:02.827Z,5.10
2023-06-29T05:37:31.693Z,5.43
2023-06-29T05:40:00.061Z,4.63
2023-06-29T05:42:28.766Z,3.85
2023-06-29T05:44:59.764Z,3.78
2023-06-29T05:47:28.457Z,4.72
2023-06-29T05:49:56.831Z,4.43
2023-06-29T05:52:25.501Z,4.25
2023-06-29T05:54:53.976Z,4.10
2023-06-29T05:57:22.895Z,4.07
2023-06-29T05:59:51.466Z,3.58
2023-06-29T06:02:21.467Z,3.92
2023-06-29T06:04:50.203Z,4.28
2023-06-29T06:07:29.070Z,3.75
2023-06-29T06:09:57.840Z,4.90
2023-06-29T06:12:26.661Z,4.03
2023-06-29T06:14:55.158Z,4.53
2023-06-29T06:17:25.566Z,3.45
2023-06-29T06:19:55.010Z,3.83
2023-06-29T06:22:23.799Z,4.32
2023-06-29T06:24:52.101Z,4.35
2023-06-29T06:27:20.844Z,4.22
2023-06-29T06:29:49.320Z,4.53
2023-06-29T06:32:20.570Z,4.00
2023-06-29T06:34:52.009Z,3.97
2023-06-29T06:37:21.979Z,4.10
2023-06-29T06:39:50.639Z,4.55
2023-06-29T06:42:19.253Z,4.55
2023-06-29T06:44:55.963Z,4.28
2023-06-29T06:47:24.928Z,4.40
2023-06-29T06:49:54.761Z,4.10
2023-06-29T06:52:23.575Z,5.03
2023-06-29T06:54:52.782Z,5.05
2023-06-29T06:57:22.123Z,3.63
2023-06-29T06:59:50.693Z,4.20
2023-06-29T07:02:19.647Z,4.10
2023-06-29T07:04:48.200Z,3.90
2023-06-29T07:07:18.252Z,3.05
2023-06-29T07:09:46.511Z,4.22
2023-06-29T07:12:15.161Z,2.85
2023-06-29T07:14:44.081Z,3.30
2023-06-29T07:17:12.748Z,3.10
2023-06-29T07:24:46.714Z,3.67
2023-06-29T07:27:15.623Z,3.40
2023-06-29T07:29:45.982Z,3.83
2023-06-29T07:32:14.914Z,3.80
2023-06-29T07:34:43.367Z,3.55
2023-06-29T07:37:12.178Z,3.33
2023-06-29T07:39:40.745Z,3.63
2023-06-29T07:42:10.797Z,3.88
2023-06-29T07:44:39.229Z,3.33
2023-06-29T07:47:07.953Z,3.60
2023-06-29T07:49:36.663Z,3.67
2023-06-29T07:52:06.250Z,3.63
2023-06-29T07:54:34.674Z,3.47
2023-06-29T07:59:35.988Z,2.95
2023-06-29T08:02:05.003Z,3.35
2023-06-29T08:07:10.035Z,2.50
2023-06-29T08:09:39.623Z,3.42
2023-06-29T08:12:09.383Z,3.50
2023-06-29T08:14:39.961Z,3.47
2023-06-29T08:17:09.172Z,3.28
2023-06-29T08:19:37.572Z,2.90
2023-06-29T08:22:06.777Z,3.20
2023-06-29T08:24:35.386Z,2.92
2023-06-29T08:27:04.090Z,2.53
2023-06-29T08:29:32.472Z,2.70
2023-06-29T08:32:03.399Z,2.78
2023-06-29T08:34:31.894Z,2.80
2023-06-29T08:37:00.458Z,2.90
2023-06-29T08:39:28.989Z,2.97
2023-06-29T08:42:02.332Z,2.90
2023-06-29T08:44:32.229Z,2.88
2023-06-29T08:47:04.247Z,3.10
2023-06-29T08:49:36.178Z,2.50
2023-06-29T08:52:06.325Z,2.78
2023-06-29T08:54:36.268Z,2.70
2023-06-29T08:57:07.190Z,2.58
2023-06-29T08:59:36.484Z,2.70
2023-06-29T09:02:08.193Z,3.03
2023-06-29T09:04:37.593Z,2.38
2023-06-29T09:07:06.906Z,2.65
2023-06-29T09:09:35.435Z,2.47
2023-06-29T09:12:04.611Z,2.90
2023-06-29T09:14:36.845Z,2.17
2023-06-29T09:17:15.490Z,2.90
2023-06-29T09:19:51.762Z,2.90
2023-06-29T09:22:22.462Z,2.55
2023-06-29T09:25:02.914Z,2.40
2023-06-29T09:27:36.073Z,2.35
2023-06-29T09:30:06.450Z,2.45
2023-06-29T09:32:40.026Z,2.17
2023-06-29T09:35:10.258Z,2.22
2023-06-29T09:37:39.089Z,2.60
2023-06-29T09:40:11.105Z,2.22
2023-06-29T09:42:40.715Z,2.03
2023-06-29T09:45:13.528Z,1.67
2023-06-29T09:50:23.612Z,1.90
2023-06-29T09:52:55.454Z,2.00
2023-06-29T09:55:32.039Z,2.22
2023-06-29T09:58:01.597Z,2.85
2023-06-29T10:00:30.946Z,2.15
2023-06-29T10:03:01.073Z,2.20
2023-06-29T10:05:31.620Z,2.20
2023-06-29T10:08:02.730Z,1.92
2023-06-29T10:10:35.383Z,1.90
2023-06-29T10:13:06.918Z,1.65
2023-06-29T10:15:37.892Z,1.60
2023-06-29T10:18:12.973Z,1.70
2023-06-29T10:20:44.999Z,1.55
2023-06-29T10:23:17.813Z,1.50
2023-06-29T10:25:50.758Z,1.67
2023-06-29T10:28:20.697Z,1.45
2023-06-29T10:30:50.322Z,1.60
2023-06-29T10:33:25.040Z,1.70
2023-06-29T10:35:56.049Z,1.42
2023-06-29T10:38:32.346Z,1.20
2023-06-29T10:41:01.142Z,1.75
2023-06-29T10:43:30.129Z,1.77
2023-06-29T10:46:01.156Z,1.77
2023-06-29T10:48:43.110Z,1.60
2023-06-29T10:51:16.141Z,1.52
2023-06-29T10:53:50.724Z,1.23
2023-06-29T10:56:31.655Z,1.20
2023-06-29T10:59:01.267Z,2.08
2023-06-29T11:01:30.154Z,1.98
2023-06-29T11:04:01.005Z,1.42
2023-06-29T11:06:36.454Z,1.15
2023-06-29T11:09:13.257Z,1.90
2023-06-29T11:11:41.718Z,2.42
2023-06-29T11:14:12.902Z,1.50
2023-06-29T11:16:41.360Z,1.90
2023-06-29T11:19:13.587Z,2.33
2023-06-29T11:21:42.914Z,1.50
2023-06-29T11:24:11.810Z,2.60
2023-06-29T11:26:40.357Z,1.80
2023-06-29T11:29:09.870Z,1.65
2023-06-29T11:31:38.569Z,2.25
2023-06-29T11:34:07.444Z,1.85
2023-06-29T11:36:38.073Z,1.55
2023-06-29T11:39:09.623Z,1.50
2023-06-29T11:41:39.006Z,1.50
2023-06-29T11:44:10.242Z,1.92
2023-06-29T11:46:41.822Z,1.70
2023-06-29T11:49:10.616Z,1.50
2023-06-29T11:51:41.478Z,1.70
2023-06-29T11:54:10.974Z,1.48
2023-06-29T11:56:41.039Z,1.42
2023-06-29T11:59:11.876Z,1.27
2023-06-29T12:01:41.224Z,1.65
2023-06-29T12:04:11.105Z,1.50
2023-06-29T12:06:52.394Z,1.88
2023-06-29T12:09:21.443Z,1.70
2023-06-29T12:11:58.322Z,1.33
2023-06-29T12:14:28.871Z,1.40
2023-06-29T12:19:34.220Z,1.60
2023-06-29T12:22:05.957Z,1.50
2023-06-29T12:24:34.687Z,1.45
2023-06-29T12:27:03.012Z,1.73
2023-06-29T12:29:31.745Z,1.58
2023-06-29T12:32:01.915Z,1.70
2023-06-29T12:34:32.729Z,1.23
2023-06-29T12:37:01.908Z,1.50
2023-06-29T12:39:32.173Z,1.35
2023-06-29T12:42:01.447Z,1.67
2023-06-29T12:44:30.223Z,1.23
2023-06-29T12:46:58.696Z,1.30
2023-06-29T12:49:28.115Z,1.40
2023-06-29T12:51:56.771Z,1.27
2023-06-29T12:54:25.586Z,1.58
2023-06-29T12:56:55.291Z,1.75
2023-06-29T12:59:23.984Z,1.33
2023-06-29T13:01:52.462Z,1.50
2023-06-29T13:04:21.336Z,1.92
2023-06-29T13:06:54.312Z,1.70
2023-06-29T13:09:23.222Z,1.25
2023-06-29T13:11:52.472Z,1.60
2023-06-29T13:14:22.784Z,1.38
2023-06-29T13:16:51.133Z,1.40
2023-06-29T13:19:19.902Z,1.63
2023-06-29T13:21:48.187Z,1.60
2023-06-29T13:24:17.169Z,1.67
2023-06-29T13:26:45.807Z,1.20
2023-06-29T13:29:14.466Z,1.52
2023-06-29T13:31:44.210Z,2.05
2023-06-29T13:34:12.855Z,1.55
2023-06-29T13:36:41.333Z,1.55
2023-06-29T13:39:10.018Z,1.42
2023-06-29T13:41:40.047Z,1.52
2023-06-29T13:44:10.120Z,1.48
2023-06-29T13:46:40.101Z,1.63
2023-06-29T13:49:10.665Z,1.30
2023-06-29T13:54:21.807Z,1.60
2023-06-29T13:56:50.893Z,1.52
2023-06-29T13:59:19.966Z,1.42
2023-06-29T14:01:48.180Z,1.48
2023-06-29T14:04:19.250Z,1.35
2023-06-29T14:06:49.137Z,1.23
2023-06-29T14:09:18.308Z,1.60
2023-06-29T14:11:46.733Z,1.38
2023-06-29T14:14:15.510Z,1.30
2023-06-29T14:16:44.518Z,1.40
2023-06-29T14:19:13.115Z,1.40
2023-06-29T14:21:43.586Z,1.40
2023-06-29T14:24:12.344Z,1.90
2023-06-29T14:26:40.618Z,2.10
2023-06-29T14:29:09.288Z,1.63
2023-06-29T14:31:38.469Z,1.40
2023-06-29T14:34:07.284Z,1.38
2023-06-29T14:36:35.824Z,1.50
2023-06-29T14:39:07.124Z,1.60
2023-06-29T14:41:36.458Z,1.30
2023-06-29T14:44:05.847Z,1.40
2023-06-29T14:46:34.274Z,1.38
2023-06-29T14:49:03.075Z,1.38
2023-06-29T14:51:31.372Z,1.33
2023-06-29T14:54:00.034Z,1.33
2023-06-29T14:56:29.772Z,1.33
2023-06-29T14:58:58.488Z,1.40
2023-06-29T15:01:27.120Z,1.20
2023-06-29T15:03:56.027Z,1.30
2023-06-29T15:06:24.889Z,1.38
2023-06-29T15:08:53.542Z,1.50
2023-06-29T15:11:22.004Z,1.35
2023-06-29T15:13:52.007Z,1.30
2023-06-29T15:16:20.535Z,1.30
2023-06-29T15:18:59.175Z,1.30
2023-06-29T15:21:29.005Z,1.48
2023-06-29T15:23:57.964Z,2.03
2023-06-29T15:26:27.450Z,1.70
2023-06-29T15:28:57.580Z,2.38
2023-06-29T15:31:26.053Z,1.60
2023-06-29T15:33:54.671Z,1.40
2023-06-29T15:36:23.040Z,1.85
2023-06-29T15:38:51.883Z,1.25
2023-06-29T15:41:20.287Z,1.55
2023-06-29T15:43:48.864Z,1.40
2023-06-29T15:46:19.426Z,1.33
2023-06-29T15:48:48.098Z,1.70
2023-06-29T15:51:16.741Z,1.52
2023-06-29T15:53:45.467Z,1.30
2023-06-29T15:56:13.943Z,1.48
2023-06-29T15:58:42.535Z,1.60
2023-06-29T16:01:10.897Z,1.67
2023-06-29T16:03:41.181Z,1.90
2023-06-29T16:06:09.612Z,1.67
2023-06-29T16:08:38.385Z,1.70
2023-06-29T16:11:06.856Z,1.63
2023-06-29T16:13:35.528Z,1.60
2023-06-29T16:16:04.030Z,1.70
2023-06-29T16:18:32.586Z,1.83
2023-06-29T16:21:02.265Z,2.00
2023-06-29T16:23:30.943Z,1.60
2023-06-29T16:25:59.322Z,1.40
2023-06-29T16:28:27.873Z,1.50
2023-06-29T16:30:56.404Z,1.65
2023-06-29T16:33:25.460Z,1.65
2023-06-29T16:35:54.394Z,1.52
2023-06-29T16:38:24.526Z,1.65
2023-06-29T16:40:52.912Z,1.70
2023-06-29T16:43:21.427Z,1.85
2023-06-29T16:45:49.907Z,1.90
2023-06-29T16:48:18.549Z,1.50
2023-06-29T16:50:46.933Z,1.73
2023-06-29T16:53:15.990Z,1.58
2023-06-29T16:55:46.484Z,1.52
2023-06-29T16:58:15.450Z,1.90
2023-06-29T17:00:43.826Z,1.45
2023-06-29T17:03:12.762Z,1.70
2023-06-29T17:05:41.382Z,1.50
2023-06-29T17:08:10.269Z,1.98
2023-06-29T17:10:38.761Z,1.63
2023-06-29T17:13:08.840Z,1.90
2023-06-29T17:15:37.291Z,1.63
2023-06-29T17:18:06.052Z,1.55
2023-06-29T17:20:34.592Z,1.90
2023-06-29T17:23:03.292Z,1.70
2023-06-29T17:25:31.836Z,1.80
2023-06-29T17:28:00.425Z,1.60
2023-06-29T17:30:30.857Z,1.80
2023-06-29T17:32:59.635Z,1.80
2023-06-29T17:35:28.071Z,1.80
2023-06-29T17:37:56.710Z,1.80
2023-06-29T17:40:25.330Z,1.75
2023-06-29T17:42:53.980Z,1.88
2023-06-29T17:45:22.306Z,2.17
2023-06-29T17:47:52.494Z,2.00
2023-06-29T17:50:20.983Z,1.95
2023-06-29T17:52:50.404Z,1.80
2023-06-29T17:55:19.543Z,1.67
2023-06-29T17:57:48.288Z,1.90
2023-06-29T18:00:17.710Z,1.92
2023-06-29T18:02:46.459Z,2.10
2023-06-29T18:05:16.763Z,2.00
2023-06-29T18:07:45.554Z,2.30
2023-06-29T18:10:13.987Z,2.40
2023-06-29T18:12:42.510Z,2.08
2023-06-29T18:15:12.371Z,1.95
2023-06-29T18:17:41.245Z,2.20
2023-06-29T18:20:10.882Z,2.30
2023-06-29T18:22:41.030Z,1.90
2023-06-29T18:25:10.397Z,2.30
2023-06-29T18:27:39.202Z,2.20
2023-06-29T18:30:08.771Z,2.55
2023-06-29T18:32:39.212Z,2.13
2023-06-29T18:35:08.303Z,2.10
2023-06-29T18:37:37.650Z,2.60
2023-06-29T18:40:09.526Z,3.63
2023-06-29T18:42:38.180Z,2.70
2023-06-29T18:45:07.586Z,2.63
2023-06-29T18:47:36.652Z,2.00
2023-06-29T18:50:07.287Z,2.60
2023-06-29T18:52:36.145Z,2.45
2023-06-29T18:55:05.621Z,2.28
2023-06-29T18:57:36.228Z,2.90
2023-06-29T19:00:05.248Z,2.85
2023-06-29T19:02:35.223Z,2.88
2023-06-29T19:05:06.255Z,2.78
2023-06-29T19:07:35.194Z,2.47
2023-06-29T19:10:03.860Z,2.83
2023-06-29T19:12:32.776Z,2.50
2023-06-29T19:15:02.586Z,2.75
2023-06-29T19:17:31.716Z,2.50
2023-06-29T19:20:03.482Z,2.50
2023-06-29T19:22:32.239Z,3.05
2023-06-29T19:25:01.028Z,2.30
2023-06-29T19:27:29.614Z,2.90
2023-06-29T19:29:58.010Z,2.83
2023-06-29T19:32:28.224Z,4.57
2023-06-29T19:34:56.684Z,3.20
2023-06-29T19:37:27.836Z,3.20
2023-06-29T19:39:56.325Z,2.80
2023-06-29T19:42:24.924Z,3.20
2023-06-29T19:44:53.344Z,2.90
2023-06-29T19:47:22.100Z,2.33
2023-06-29T19:49:51.896Z,7.88
2023-06-29T19:52:20.749Z,9.77
2023-06-29T19:54:50.251Z,4.63
2023-06-29T19:57:18.929Z,5.82
2023-06-29T19:59:49.265Z,13.85
2023-06-29T20:02:18.062Z,17.35
2023-06-29T20:04:49.336Z,15.35
2023-06-29T20:07:19.449Z,9.20
2023-06-29T20:09:48.239Z,6.55
2023-06-29T20:12:16.937Z,6.00
2023-06-29T20:14:45.368Z,5.78
2023-06-29T20:17:14.276Z,4.72
2023-06-29T20:19:42.882Z,3.78
2023-06-29T20:22:11.709Z,4.15
2023-06-29T20:24:41.397Z,3.72
2023-06-29T20:27:10.171Z,3.80
2023-06-29T20:29:38.614Z,3.60
2023-06-29T20:32:09.196Z,3.45
2023-06-29T20:34:37.736Z,3.10
2023-06-29T20:37:06.900Z,3.25
2023-06-29T20:39:35.309Z,3.25
2023-06-29T20:42:05.699Z,3.35
2023-06-29T20:44:34.535Z,10.15
2023-06-29T20:47:04.543Z,16.02
2023-06-29T20:49:33.145Z,15.98
2023-06-29T20:52:02.096Z,7.78
2023-06-29T20:54:30.582Z,6.78
2023-06-29T20:56:59.743Z,5.47
2023-06-29T20:59:31.722Z,4.45
2023-06-29T21:02:01.679Z,4.10
2023-06-29T21:04:32.933Z,3.90
2023-06-29T21:07:02.084Z,17.17
2023-06-29T21:09:30.628Z,18.27
2023-06-29T21:11:59.581Z,16.20
2023-06-29T21:14:29.926Z,10.00
2023-06-29T21:16:58.940Z,6.35
2023-06-29T21:19:27.763Z,6.35
2023-06-29T21:21:57.559Z,5.25
2023-06-29T21:24:26.427Z,5.55
2023-06-29T21:26:55.530Z,5.18
2023-06-29T21:29:40.705Z,5.15
2023-06-29T21:32:12.905Z,5.07
2023-06-29T21:34:42.380Z,4.28
2023-06-29T21:37:12.147Z,4.50
2023-06-29T21:39:40.723Z,27.17
2023-06-29T21:42:10.253Z,11.07
2023-06-29T21:44:38.840Z,7.63
2023-06-29T21:47:08.096Z,5.50
2023-06-29T21:49:39.095Z,6.07
2023-06-29T21:52:08.676Z,6.50
2023-06-29T21:54:37.198Z,6.90
2023-06-29T21:57:06.953Z,6.63
2023-06-29T21:59:35.915Z,5.80
2023-06-29T22:02:04.684Z,5.00
2023-06-29T22:04:33.143Z,4.78
2023-06-29T22:07:15.422Z,4.78
2023-06-29T22:09:45.530Z,4.78
2023-06-29T22:12:14.215Z,4.50
2023-06-29T22:14:46.061Z,4.70
2023-06-29T22:17:17.180Z,5.57
2023-06-29T22:20:06.781Z,5.13
2023-06-29T22:22:37.005Z,4.55
2023-06-29T22:25:06.038Z,5.05
2023-06-29T22:27:34.745Z,6.30
2023-06-29T22:30:03.397Z,5.03
2023-06-29T22:32:32.458Z,5.10
2023-06-29T22:35:00.868Z,5.30
2023-06-29T22:37:29.729Z,5.90
2023-06-29T22:39:59.707Z,5.53
2023-06-29T22:42:28.332Z,5.05
2023-06-29T22:44:57.338Z,4.75
2023-06-29T22:47:26.105Z,4.97
2023-06-29T22:49:55.698Z,5.65
2023-06-29T22:52:24.593Z,5.65
2023-06-29T22:54:53.753Z,5.40
2023-06-29T22:57:24.364Z,5.50
2023-06-29T22:59:53.893Z,4.90
2023-06-29T23:02:22.977Z,5.72
2023-06-29T23:04:53.421Z,5.10
2023-06-29T23:07:23.320Z,5.75
2023-06-29T23:09:51.834Z,5.45
2023-06-29T23:12:22.456Z,5.30
2023-06-29T23:14:53.236Z,4.90
2023-06-29T23:17:23.914Z,5.30
2023-06-29T23:19:52.380Z,4.43
2023-06-29T23:22:22.754Z,5.15
2023-06-29T23:24:53.800Z,5.65
2023-06-29T23:27:23.238Z,4.97
2023-06-29T23:29:54.340Z,5.68
2023-06-29T23:32:23.430Z,5.15
2023-06-29T23:34:51.945Z,5.13
2023-06-29T23:37:21.029Z,4.88
2023-06-29T23:39:49.476Z,4.90
2023-06-29T23:42:18.824Z,5.50
2023-06-29T23:44:47.455Z,4.88
2023-06-29T23:47:18.428Z,4.93
2023-06-29T23:49:48.353Z,5.60
2023-06-29T23:52:17.329Z,5.10
2023-06-29T23:54:45.580Z,4.80
2023-06-29T23:57:15.251Z,5.72
2023-06-29T23:59:43.730Z,6.00
